Dobbins Air Reserve Base Airport Marietta US
ICAO: KMGE
IATA: MGE
Category: Large
Scheduled Services: No

Elevation: 1068 ft
TransAlt. 18000 ft.

Airport Communications:
ATLANTA APP/DEP:121
ATIS:26.95
GND:125.3
NAVY OPS:34.02
ARNG OPS:47
PMSV METRO:27.475
94AW COMD POST:37.952
PTD:139.3
TWR:120.75

KMGE Zoom In..

Runways:

(A) RW 11 length 10002 ft width 300 ft
ILS 109.70 / hdg 109

(B) RW 29 length 10002 ft width 300 ft
ILS 111.35 / hdg 289

Location; KMGE
Day. 21 / Time. 23.56 Zulu
* Altimeter: 30.23
* Temperature: 20° c. 68°f.
* Wind from: 100° Speed 10 kn.
Dewpoint: 04° c.
Visibility: 10 Statute Miles.
Clouds: Broken 6000 ft.
Clouds: Broken 25000 ft.

KMGE 212356Z 10010KT 10SM BKN060 BKN250 20/04 A3023 RMK AO2A SLP237 T01950044 10220 20195 55001 $


Wind From 100°
Speed 10 kn.

  YouTube Music Video
 
jpsmedia.com for Web Design  worldairports.se 2018   terms of use